createdAt,value
2023-03-27T00:01:46.580Z,17.00
2023-03-27T00:03:50.555Z,10.70
2023-03-27T00:06:27.659Z,15.70
2023-03-27T00:08:38.143Z,14.80
2023-03-27T00:10:41.042Z,16.20
2023-03-27T00:12:44.416Z,13.90
2023-03-27T00:14:48.123Z,13.60
2023-03-27T00:16:51.370Z,8.90
2023-03-27T00:18:55.230Z,11.10
2023-03-27T00:20:58.907Z,8.90
2023-03-27T00:23:02.946Z,4.70
2023-03-27T00:25:06.074Z,8.60
2023-03-27T00:27:09.174Z,7.40
2023-03-27T00:29:13.493Z,10.60
2023-03-27T00:31:16.864Z,5.40
2023-03-27T00:33:20.611Z,10.10
2023-03-27T00:35:24.840Z,4.80
2023-03-27T00:37:27.770Z,5.20
2023-03-27T00:39:31.527Z,5.80
2023-03-27T00:41:38.086Z,7.90
2023-03-27T00:43:43.955Z,7.10
2023-03-27T00:45:53.771Z,7.30
2023-03-27T00:48:08.431Z,10.40
2023-03-27T00:50:17.653Z,7.70
2023-03-27T00:52:21.367Z,5.60
2023-03-27T00:54:30.504Z,8.10
2023-03-27T00:56:39.678Z,8.20
2023-03-27T00:58:46.802Z,4.20
2023-03-27T01:00:53.631Z,5.50
2023-03-27T01:02:57.584Z,3.40
2023-03-27T01:05:05.076Z,3.30
2023-03-27T01:07:11.165Z,3.50
2023-03-27T01:09:20.817Z,4.30
2023-03-27T01:12:02.298Z,3.20
2023-03-27T01:14:44.918Z,2.50
2023-03-27T01:16:59.571Z,2.20
2023-03-27T01:19:43.386Z,3.50
2023-03-27T01:22:16.778Z,3.90
2023-03-27T01:24:56.421Z,5.80
2023-03-27T01:27:40.317Z,3.70
2023-03-27T01:30:04.882Z,2.50
2023-03-27T01:32:35.889Z,2.60
2023-03-27T01:34:47.641Z,3.40
2023-03-27T01:37:30.665Z,3.10
2023-03-27T01:40:10.530Z,6.10
2023-03-27T01:42:33.658Z,3.70
2023-03-27T01:44:49.101Z,4.70
2023-03-27T01:47:14.720Z,3.70
2023-03-27T01:49:24.979Z,4.70
2023-03-27T01:51:43.242Z,4.20
2023-03-27T01:53:52.529Z,4.20
2023-03-27T01:56:05.840Z,5.30
2023-03-27T01:58:14.204Z,4.20
2023-03-27T02:00:22.615Z,5.00
2023-03-27T02:02:30.557Z,4.40
2023-03-27T02:05:04.492Z,7.40
2023-03-27T02:07:12.457Z,7.20
2023-03-27T02:09:42.421Z,5.90
2023-03-27T02:11:51.484Z,6.50
2023-03-27T02:14:00.628Z,7.40
2023-03-27T02:16:06.733Z,7.80
2023-03-27T02:18:19.042Z,5.00
2023-03-27T02:22:38.095Z,8.50
2023-03-27T02:24:44.018Z,5.70
2023-03-27T02:26:53.111Z,9.70
2023-03-27T02:29:41.542Z,9.50
2023-03-27T02:32:20.870Z,4.90
2023-03-27T02:34:49.270Z,10.50
2023-03-27T02:37:02.383Z,9.00
2023-03-27T02:39:58.237Z,5.80
2023-03-27T02:42:16.033Z,11.30
2023-03-27T02:44:51.681Z,14.80
2023-03-27T02:49:22.072Z,12.50
2023-03-27T02:51:33.601Z,12.00
2023-03-27T02:53:46.042Z,14.80
2023-03-27T02:59:04.023Z,10.70
2023-03-27T03:01:13.728Z,10.90
2023-03-27T03:03:53.955Z,8.40
2023-03-27T03:06:11.342Z,16.50
2023-03-27T03:08:14.810Z,12.40
2023-03-27T03:10:17.784Z,11.50
2023-03-27T03:12:21.443Z,15.00
2023-03-27T03:14:59.751Z,12.80
2023-03-27T03:17:02.667Z,11.50
2023-03-27T03:19:05.384Z,14.40
2023-03-27T03:21:09.753Z,11.90
2023-03-27T03:23:12.427Z,12.50
2023-03-27T03:25:17.824Z,10.60
2023-03-27T03:27:21.024Z,15.50
2023-03-27T03:29:40.837Z,16.40
2023-03-27T03:31:53.382Z,20.80
2023-03-27T03:34:04.142Z,13.60
2023-03-27T03:36:18.127Z,19.70
2023-03-27T03:38:27.054Z,18.70
2023-03-27T03:40:32.312Z,10.30
2023-03-27T03:42:39.335Z,16.50
2023-03-27T03:44:44.363Z,20.20
2023-03-27T03:47:02.374Z,20.10
2023-03-27T03:49:06.082Z,15.90
2023-03-27T03:51:08.689Z,19.70
2023-03-27T03:53:12.322Z,16.50
2023-03-27T03:55:16.839Z,10.40
2023-03-27T03:57:20.855Z,20.90
2023-03-27T03:59:35.819Z,11.20
2023-03-27T04:02:00.016Z,16.40
2023-03-27T04:04:05.920Z,23.50
2023-03-27T04:06:26.657Z,12.40
2023-03-27T04:08:43.103Z,16.60
2023-03-27T04:11:32.012Z,24.70
2023-03-27T04:14:07.407Z,22.80
2023-03-27T04:16:17.002Z,17.00
2023-03-27T04:18:42.005Z,21.90
2023-03-27T04:20:50.056Z,20.90
2023-03-27T04:22:57.622Z,21.60
2023-03-27T04:25:03.232Z,21.70
2023-03-27T04:27:06.737Z,29.80
2023-03-27T04:29:16.853Z,14.50
2023-03-27T04:31:42.595Z,22.60
2023-03-27T04:34:11.975Z,29.80
2023-03-27T04:36:18.043Z,20.90
2023-03-27T04:38:43.612Z,30.20
2023-03-27T04:40:49.666Z,29.10
2023-03-27T04:42:56.015Z,26.70
2023-03-27T04:45:00.234Z,13.00
2023-03-27T04:47:08.771Z,35.60
2023-03-27T04:49:11.755Z,24.80
2023-03-27T04:51:33.164Z,30.60
2023-03-27T04:53:37.557Z,37.70
2023-03-27T04:55:41.562Z,15.70
2023-03-27T04:57:48.064Z,22.40
2023-03-27T04:59:50.674Z,25.20
2023-03-27T05:02:16.460Z,22.30
2023-03-27T05:04:32.235Z,36.30
2023-03-27T05:06:47.469Z,25.70
2023-03-27T05:08:52.737Z,32.20
2023-03-27T05:11:00.899Z,26.60
2023-03-27T05:13:08.470Z,28.90
2023-03-27T05:15:12.518Z,34.20
2023-03-27T05:17:18.239Z,35.70
2023-03-27T05:19:33.657Z,26.70
2023-03-27T05:21:40.160Z,27.40
2023-03-27T05:23:44.914Z,26.10
2023-03-27T05:25:59.730Z,30.80
2023-03-27T05:28:11.395Z,39.30
2023-03-27T05:30:16.617Z,46.40
2023-03-27T05:32:19.505Z,31.90
2023-03-27T05:34:27.806Z,35.70
2023-03-27T05:36:32.042Z,40.90
2023-03-27T05:38:37.815Z,41.50
2023-03-27T05:40:47.503Z,36.90
2023-03-27T05:42:53.666Z,37.90
2023-03-27T05:44:57.505Z,16.00
2023-03-27T05:47:02.764Z,15.30
2023-03-27T05:49:06.445Z,32.20
2023-03-27T05:51:13.432Z,27.40
2023-03-27T05:53:28.112Z,39.80
2023-03-27T05:56:03.247Z,40.90
2023-03-27T05:58:29.365Z,36.60
2023-03-27T06:00:35.668Z,42.20
2023-03-27T06:02:41.030Z,35.20
2023-03-27T06:04:46.634Z,33.10
2023-03-27T06:07:04.233Z,30.70
2023-03-27T06:09:07.863Z,51.10
2023-03-27T06:11:11.907Z,45.90
2023-03-27T06:13:26.255Z,65.90
2023-03-27T06:59:39.242Z,12.90
2023-03-27T07:04:05.742Z,21.70
2023-03-27T07:06:39.507Z,20.30
2023-03-27T07:09:02.928Z,8.00
2023-03-27T07:11:25.726Z,15.80
2023-03-27T07:13:37.478Z,10.30
2023-03-27T07:15:45.217Z,8.80
2023-03-27T07:20:01.451Z,21.70
2023-03-27T07:22:26.626Z,8.80
2023-03-27T07:26:42.533Z,15.20
2023-03-27T07:29:18.187Z,5.40
2023-03-27T07:31:54.921Z,10.40
2023-03-27T07:34:13.300Z,14.60
2023-03-27T07:36:39.375Z,16.70
2023-03-27T07:38:51.466Z,10.10
2023-03-27T07:41:06.739Z,11.30
2023-03-27T07:43:36.952Z,9.20
2023-03-27T07:45:46.617Z,12.50
2023-03-27T07:47:52.846Z,12.10
2023-03-27T07:59:29.723Z,7.50
2023-03-27T08:01:58.125Z,7.80
2023-03-27T08:04:08.708Z,11.20
2023-03-27T08:06:14.931Z,14.10
2023-03-27T08:08:19.268Z,6.50
2023-03-27T08:10:56.948Z,5.90
2023-03-27T08:13:29.133Z,16.80
2023-03-27T08:15:27.325Z,12.60
2023-03-27T08:17:38.945Z,14.10
2023-03-27T08:19:54.772Z,17.90
2023-03-27T08:22:09.893Z,13.00
2023-03-27T08:24:36.113Z,18.50
2023-03-27T08:26:50.385Z,8.60
2023-03-27T08:28:56.153Z,14.70
2023-03-27T08:31:20.732Z,5.90
2023-03-27T08:33:24.038Z,5.00
2023-03-27T08:35:27.160Z,13.30
2023-03-27T08:37:43.956Z,12.40
2023-03-27T08:40:20.549Z,11.20
2023-03-27T08:42:37.379Z,20.70
2023-03-27T08:44:40.486Z,15.80
2023-03-27T08:46:59.828Z,16.80
2023-03-27T08:49:37.727Z,8.40
2023-03-27T08:52:00.778Z,12.00
2023-03-27T08:54:18.230Z,7.10
2023-03-27T08:56:21.671Z,14.30
2023-03-27T08:58:38.255Z,14.80
2023-03-27T09:01:07.197Z,10.40
2023-03-27T09:03:22.422Z,9.60
2023-03-27T09:05:35.996Z,14.40
2023-03-27T09:08:06.587Z,10.60
2023-03-27T09:10:45.551Z,7.50
2023-03-27T09:59:24.071Z,12.00
2023-03-27T10:01:34.643Z,10.40
2023-03-27T10:03:53.017Z,12.80
2023-03-27T10:06:14.204Z,5.40
2023-03-27T10:08:46.008Z,9.40
2023-03-27T10:11:08.068Z,6.60
2023-03-27T10:13:29.427Z,16.00
2023-03-27T10:15:39.749Z,12.30
2023-03-27T10:17:48.404Z,9.80
2023-03-27T10:20:15.889Z,11.80
2023-03-27T10:22:31.526Z,14.20
2023-03-27T10:24:45.941Z,14.30
2023-03-27T10:27:29.694Z,16.00
2023-03-27T10:29:58.762Z,10.10
2023-03-27T10:32:07.463Z,15.20
2023-03-27T10:34:42.038Z,9.70
2023-03-27T10:37:28.970Z,7.70
2023-03-27T10:39:44.746Z,6.40
2023-03-27T10:41:54.176Z,14.60
2023-03-27T10:43:58.202Z,18.50
2023-03-27T10:46:06.074Z,12.80
2023-03-27T10:48:10.265Z,7.70
2023-03-27T10:50:25.290Z,13.30
2023-03-27T10:52:48.419Z,10.80
2023-03-27T10:55:23.238Z,9.60
2023-03-27T10:57:30.761Z,9.90
2023-03-27T10:59:44.343Z,12.70
2023-03-27T11:02:01.660Z,11.20
2023-03-27T11:04:23.351Z,6.30
2023-03-27T11:06:41.083Z,6.10
2023-03-27T11:09:05.687Z,9.80
2023-03-27T11:11:22.593Z,5.80
2023-03-27T11:13:42.483Z,10.80
2023-03-27T11:16:23.975Z,14.40
2023-03-27T11:18:54.206Z,13.20
2023-03-27T11:21:05.292Z,7.50
2023-03-27T11:23:20.725Z,11.60
2023-03-27T11:25:53.604Z,12.60
2023-03-27T11:28:48.793Z,7.60
2023-03-27T11:30:58.524Z,14.50
2023-03-27T11:33:31.094Z,16.00
2023-03-27T11:36:16.033Z,15.70
2023-03-27T11:38:35.741Z,11.90
2023-03-27T11:40:50.247Z,13.70
2023-03-27T11:42:54.245Z,12.40
2023-03-27T11:45:00.350Z,11.90
2023-03-27T11:47:42.401Z,14.40
2023-03-27T11:50:29.455Z,10.30
2023-03-27T11:53:09.525Z,7.50
2023-03-27T11:55:49.264Z,11.40
2023-03-27T11:58:32.216Z,13.00
2023-03-27T12:00:42.555Z,8.90
2023-03-27T12:02:55.689Z,8.30
2023-03-27T12:05:26.310Z,12.80
2023-03-27T12:08:08.045Z,14.60
2023-03-27T12:10:29.116Z,3.30
2023-03-27T12:13:00.129Z,12.30
2023-03-27T12:15:29.218Z,13.50
2023-03-27T12:17:44.781Z,12.00
2023-03-27T12:20:19.172Z,15.00
2023-03-27T12:22:53.485Z,9.50
2023-03-27T12:25:26.483Z,8.90
2023-03-27T12:28:23.216Z,9.70
2023-03-27T12:30:52.154Z,6.60
2023-03-27T12:33:28.281Z,11.40
2023-03-27T12:37:46.463Z,7.60
2023-03-27T12:39:52.200Z,13.50
2023-03-27T12:41:54.927Z,11.60
2023-03-27T12:44:26.236Z,11.70
2023-03-27T12:46:39.073Z,16.30
2023-03-27T12:48:54.147Z,12.90
2023-03-27T12:50:59.539Z,9.90
2023-03-27T12:55:13.944Z,8.10
2023-03-27T12:57:48.592Z,8.40
2023-03-27T13:00:00.730Z,9.50
2023-03-27T13:02:08.475Z,14.60
2023-03-27T13:04:53.341Z,6.30
2023-03-27T13:07:23.272Z,6.00
2023-03-27T13:10:04.929Z,12.50
2023-03-27T13:12:46.321Z,8.90
2023-03-27T13:15:35.600Z,5.50
2023-03-27T13:17:57.138Z,7.90
2023-03-27T13:20:37.276Z,10.70
2023-03-27T13:22:58.585Z,15.80
2023-03-27T13:25:33.797Z,8.00
2023-03-27T13:28:03.759Z,14.30
2023-03-27T13:30:46.986Z,10.50
2023-03-27T13:33:13.952Z,10.80
2023-03-27T13:35:21.270Z,7.20
2023-03-27T13:37:36.965Z,14.50
2023-03-27T13:39:55.995Z,11.10
2023-03-27T13:42:08.961Z,10.80
2023-03-27T13:44:41.939Z,11.40
2023-03-27T13:46:54.180Z,9.10
2023-03-27T13:49:41.963Z,10.40
2023-03-27T13:52:00.638Z,7.90
2023-03-27T13:54:24.797Z,11.90
2023-03-27T13:56:42.484Z,6.90
2023-03-27T13:59:26.214Z,11.40
2023-03-27T14:01:49.693Z,10.60
2023-03-27T14:04:17.286Z,12.20
2023-03-27T14:07:02.298Z,8.90
2023-03-27T14:09:25.334Z,5.30
2023-03-27T14:11:51.028Z,10.40
2023-03-27T14:14:52.503Z,6.70
2023-03-27T14:17:34.898Z,5.80
2023-03-27T14:22:05.827Z,12.90
2023-03-27T14:24:30.502Z,11.00
2023-03-27T14:26:46.142Z,22.80
2023-03-27T14:28:53.389Z,11.20
2023-03-27T14:31:08.269Z,13.50
2023-03-27T14:33:23.018Z,13.10
2023-03-27T14:37:46.070Z,11.10
2023-03-27T14:40:23.232Z,9.60
2023-03-27T14:42:33.043Z,10.00
2023-03-27T14:44:36.414Z,8.60
2023-03-27T14:46:55.184Z,7.20
2023-03-27T14:49:00.257Z,6.90
2023-03-27T14:51:10.719Z,5.20
2023-03-27T14:53:18.731Z,7.80
2023-03-27T14:55:42.870Z,9.20
2023-03-27T14:58:19.868Z,7.90
2023-03-27T15:00:26.216Z,10.10
2023-03-27T15:02:34.957Z,6.40
2023-03-27T15:04:43.969Z,10.50
2023-03-27T15:06:50.053Z,14.10
2023-03-27T15:09:17.371Z,5.90
2023-03-27T15:11:48.381Z,5.00
2023-03-27T15:13:57.789Z,8.00
2023-03-27T15:16:09.649Z,8.30
2023-03-27T15:18:32.144Z,14.10
2023-03-27T15:20:37.318Z,9.00
2023-03-27T15:22:48.498Z,8.10
2023-03-27T15:25:07.620Z,7.70
2023-03-27T15:27:28.016Z,5.00
2023-03-27T15:29:39.712Z,9.90
2023-03-27T15:31:52.943Z,9.80
2023-03-27T15:34:10.096Z,10.90
2023-03-27T15:36:28.049Z,7.70
2023-03-27T15:38:34.917Z,10.40
2023-03-27T15:40:43.133Z,7.70
2023-03-27T15:42:54.339Z,10.10
2023-03-27T15:45:02.541Z,6.90
2023-03-27T15:47:24.686Z,7.00
2023-03-27T15:49:34.222Z,7.50
2023-03-27T15:51:37.063Z,9.20
2023-03-27T15:53:53.486Z,11.50
2023-03-27T15:55:57.335Z,8.20
2023-03-27T15:58:13.131Z,11.20
2023-03-27T16:00:16.752Z,16.70
2023-03-27T16:02:20.618Z,8.50
2023-03-27T16:04:28.310Z,14.00
2023-03-27T16:06:36.970Z,9.80
2023-03-27T16:08:47.405Z,10.90
2023-03-27T16:10:50.998Z,12.50
2023-03-27T16:13:03.128Z,9.50
2023-03-27T16:15:08.438Z,21.00
2023-03-27T16:17:22.307Z,9.10
2023-03-27T16:19:25.389Z,9.40
2023-03-27T16:21:29.973Z,9.70
2023-03-27T16:23:34.234Z,5.20
2023-03-27T16:25:39.414Z,8.10
2023-03-27T16:27:49.290Z,6.10
2023-03-27T16:29:53.542Z,6.10
2023-03-27T16:31:58.684Z,5.70
2023-03-27T16:34:02.528Z,12.00
2023-03-27T16:36:07.819Z,7.40
2023-03-27T16:38:10.569Z,12.80
2023-03-27T16:40:14.767Z,9.90
2023-03-27T16:42:25.815Z,8.80
2023-03-27T16:44:29.867Z,8.10
2023-03-27T16:46:35.056Z,10.50
2023-03-27T16:48:38.574Z,10.40
2023-03-27T16:50:41.262Z,8.10
2023-03-27T16:52:44.135Z,8.40
2023-03-27T16:54:47.797Z,10.20
2023-03-27T16:56:52.531Z,6.80
2023-03-27T16:58:55.705Z,15.80
2023-03-27T17:00:59.783Z,16.60
2023-03-27T17:03:03.101Z,14.10
2023-03-27T17:05:08.752Z,16.90
2023-03-27T17:07:20.061Z,27.00
2023-03-27T17:09:23.394Z,15.40
2023-03-27T17:11:26.049Z,11.30
2023-03-27T17:13:28.975Z,17.10
2023-03-27T17:15:36.105Z,53.00
2023-03-27T17:17:39.922Z,109.80
2023-03-27T17:19:42.636Z,80.90
2023-03-27T17:21:45.453Z,58.60
2023-03-27T17:23:48.723Z,67.10
2023-03-27T17:25:52.131Z,65.90
2023-03-27T17:27:55.555Z,73.20
2023-03-27T17:30:01.430Z,25.00
2023-03-27T17:32:04.913Z,79.30
2023-03-27T17:34:10.008Z,37.80
2023-03-27T17:36:26.843Z,34.00
2023-03-27T17:38:35.068Z,20.30
2023-03-27T17:40:42.225Z,23.00
2023-03-27T17:42:48.496Z,6.10
2023-03-27T17:44:54.710Z,9.70
2023-03-27T17:47:00.503Z,10.30
2023-03-27T17:49:13.918Z,12.90
2023-03-27T17:51:18.892Z,14.60
2023-03-27T17:53:23.645Z,9.30
2023-03-27T17:55:26.614Z,8.90
2023-03-27T17:57:44.210Z,8.90
2023-03-27T17:59:48.823Z,8.10
2023-03-27T18:01:51.834Z,9.40
2023-03-27T18:03:55.467Z,16.10
2023-03-27T18:06:05.072Z,14.50
2023-03-27T18:08:14.356Z,11.50
2023-03-27T18:10:19.146Z,12.40
2023-03-27T18:12:22.938Z,6.90
2023-03-27T18:14:26.468Z,5.90
2023-03-27T18:16:29.482Z,12.10
2023-03-27T18:18:38.799Z,7.80
2023-03-27T18:20:50.612Z,12.60
2023-03-27T18:25:00.836Z,7.80
2023-03-27T18:27:03.945Z,14.00
2023-03-27T18:29:07.514Z,10.80
2023-03-27T18:31:12.896Z,13.00
2023-03-27T18:33:15.804Z,13.60
2023-03-27T18:35:20.104Z,31.10
2023-03-27T18:37:22.654Z,16.90
2023-03-27T18:39:27.778Z,27.80
2023-03-27T18:41:33.293Z,15.70
2023-03-27T18:43:39.611Z,15.60
2023-03-27T18:45:42.757Z,13.70
2023-03-27T18:47:47.640Z,15.10
2023-03-27T18:49:59.962Z,13.20
2023-03-27T18:52:03.763Z,9.00
2023-03-27T18:54:07.915Z,11.60
2023-03-27T18:56:12.336Z,11.10
2023-03-27T18:58:15.063Z,9.60
2023-03-27T19:00:18.443Z,15.70
2023-03-27T19:02:22.459Z,9.40
2023-03-27T19:04:25.670Z,8.70
2023-03-27T19:06:36.503Z,8.80
2023-03-27T19:08:43.758Z,8.90
2023-03-27T19:10:46.365Z,7.00
2023-03-27T19:13:13.573Z,4.10
2023-03-27T19:15:43.831Z,6.40
2023-03-27T19:18:10.264Z,5.40
2023-03-27T19:20:36.839Z,7.50
2023-03-27T19:23:17.565Z,5.10
2023-03-27T19:25:25.820Z,8.80
2023-03-27T19:27:38.657Z,8.80
2023-03-27T19:29:46.798Z,6.20
2023-03-27T19:31:49.711Z,6.10
2023-03-27T19:33:55.310Z,7.70
2023-03-27T19:35:58.436Z,7.80
2023-03-27T19:38:01.567Z,9.20
2023-03-27T19:40:08.387Z,10.50
2023-03-27T19:42:11.213Z,10.70
2023-03-27T19:44:16.741Z,12.30
2023-03-27T19:46:19.764Z,14.40
2023-03-27T19:48:24.845Z,13.20
2023-03-27T19:50:28.979Z,13.40
2023-03-27T19:52:54.491Z,10.20
2023-03-27T19:55:10.124Z,8.80
2023-03-27T19:57:12.813Z,14.70
2023-03-27T19:59:29.942Z,14.30
2023-03-27T20:01:37.435Z,24.80
2023-03-27T20:03:42.344Z,31.40
2023-03-27T20:05:49.314Z,34.00
2023-03-27T20:07:51.962Z,35.10
2023-03-27T20:09:55.189Z,41.90
2023-03-27T20:11:58.172Z,31.60
2023-03-27T20:14:02.364Z,29.10
2023-03-27T20:16:06.262Z,33.80
2023-03-27T20:18:11.427Z,33.10
2023-03-27T20:20:15.553Z,37.90
2023-03-27T20:22:20.726Z,43.20
2023-03-27T20:24:25.086Z,33.40
2023-03-27T20:26:39.215Z,28.70
2023-03-27T20:28:55.615Z,30.40
2023-03-27T20:31:03.558Z,38.80
2023-03-27T20:33:06.332Z,22.10
2023-03-27T20:35:20.719Z,20.20
2023-03-27T20:39:47.158Z,26.20
2023-03-27T20:41:58.928Z,25.40
2023-03-27T20:44:05.310Z,16.70
2023-03-27T20:46:13.465Z,41.20
2023-03-27T20:48:19.197Z,39.30
2023-03-27T20:50:24.126Z,53.20
2023-03-27T20:52:30.223Z,45.70
2023-03-27T20:54:34.741Z,58.60
2023-03-27T20:56:37.227Z,39.80
2023-03-27T20:58:41.749Z,33.50
2023-03-27T21:00:45.209Z,41.70
2023-03-27T21:02:49.041Z,35.40
2023-03-27T21:04:51.754Z,31.80
2023-03-27T21:06:58.702Z,27.40
2023-03-27T21:09:13.855Z,31.30
2023-03-27T21:11:17.075Z,23.40
2023-03-27T21:13:21.484Z,19.70
2023-03-27T21:15:24.569Z,25.70
2023-03-27T21:17:27.234Z,26.00
2023-03-27T21:19:30.032Z,26.70
2023-03-27T21:21:33.370Z,20.30
2023-03-27T21:23:36.991Z,20.70
2023-03-27T21:25:40.952Z,10.20
2023-03-27T21:27:44.110Z,16.70
2023-03-27T21:29:46.906Z,15.20
2023-03-27T21:31:55.312Z,11.30
2023-03-27T21:34:01.229Z,21.10
2023-03-27T21:36:05.471Z,27.50
2023-03-27T21:38:08.003Z,21.70
2023-03-27T21:40:11.623Z,23.60
2023-03-27T21:42:16.452Z,36.00
2023-03-27T21:44:18.942Z,30.00
2023-03-27T21:46:22.232Z,32.80
2023-03-27T21:48:26.137Z,22.50
2023-03-27T21:50:30.530Z,23.20
2023-03-27T21:52:34.735Z,26.90
2023-03-27T21:54:37.624Z,14.70
2023-03-27T21:56:40.327Z,17.90
2023-03-27T21:58:42.962Z,19.40
2023-03-27T22:00:46.405Z,13.10
2023-03-27T22:02:57.494Z,14.20
2023-03-27T22:05:00.435Z,13.40
2023-03-27T22:07:05.368Z,10.10
2023-03-27T22:09:07.919Z,17.60
2023-03-27T22:11:12.683Z,20.40
2023-03-27T22:13:18.524Z,15.70
2023-03-27T22:15:21.081Z,15.90
2023-03-27T22:17:23.699Z,16.20
2023-03-27T22:19:30.401Z,17.50
2023-03-27T22:21:33.268Z,13.60
2023-03-27T22:23:36.074Z,10.70
2023-03-27T22:25:38.699Z,19.00
2023-03-27T22:27:47.245Z,21.20
2023-03-27T22:29:49.773Z,17.10
2023-03-27T22:31:53.877Z,22.60
2023-03-27T22:33:58.750Z,22.10
2023-03-27T22:36:01.602Z,16.90
2023-03-27T22:38:06.261Z,22.60
2023-03-27T22:40:09.349Z,13.40
2023-03-27T22:42:11.871Z,14.80
2023-03-27T22:44:14.926Z,16.90
2023-03-27T22:46:20.792Z,13.60
2023-03-27T22:48:23.371Z,16.60
2023-03-27T22:50:31.351Z,15.50
2023-03-27T22:52:35.869Z,11.40
2023-03-27T22:54:41.374Z,18.80
2023-03-27T22:56:45.616Z,17.20
2023-03-27T22:58:50.195Z,12.90
2023-03-27T23:00:56.314Z,12.10
2023-03-27T23:02:59.926Z,15.10
2023-03-27T23:05:04.466Z,13.20
2023-03-27T23:07:07.256Z,14.90
2023-03-27T23:09:14.589Z,12.40
2023-03-27T23:11:18.092Z,17.40
2023-03-27T23:13:22.225Z,15.90
2023-03-27T23:15:29.873Z,18.60
2023-03-27T23:17:33.589Z,12.20
2023-03-27T23:19:36.087Z,15.20
2023-03-27T23:21:40.065Z,12.90
2023-03-27T23:23:42.877Z,10.90
2023-03-27T23:25:45.621Z,12.30
2023-03-27T23:27:48.497Z,13.20
2023-03-27T23:29:52.065Z,14.80
2023-03-27T23:31:54.751Z,13.90
2023-03-27T23:33:58.540Z,11.30
2023-03-27T23:36:09.220Z,10.80
2023-03-27T23:38:13.030Z,15.70
2023-03-27T23:40:17.784Z,15.10
2023-03-27T23:42:20.366Z,12.00
2023-03-27T23:44:23.629Z,21.80
2023-03-27T23:46:26.998Z,13.80
2023-03-27T23:48:31.605Z,15.40
2023-03-27T23:50:34.134Z,17.90
2023-03-27T23:52:38.041Z,18.50
2023-03-27T23:54:42.154Z,14.70
2023-03-27T23:56:46.077Z,21.30
2023-03-27T23:58:48.874Z,14.40
